Time;durP1;ratioP1;P1;durP2;ratioP2;P2;SDS_P1;SDS_P2;PMS_P1;PMS_P2;Temp;Humidity;BMP_temperature;BMP_pressure;BME280_temperature;BME280_humidity;BME280_pressure;Samples;Min_cycle;Max_cycle;Signal;HPM_P1;HPM_P2
2024/03/11 00:00:29;;;;;;;;;;;;;;;19.88;46.74;99495.59;2067680;28;6236;-68
2024/03/11 00:01:31;;;;;;;;;;;;;;;19.87;46.84;99494.13;2065947;28;2002;-68
2024/03/11 00:02:32;;;;;;;;;;;;;;;19.88;46.80;99504.22;2067193;28;2196;-68
2024/03/11 00:03:34;;;;;;;;;;;;;;;19.88;46.75;99504.22;2066671;28;2095;-68
2024/03/11 00:04:35;;;;;;;;;;;;;;;19.87;46.90;99499.88;2067879;28;1805;-68
2024/03/11 00:05:37;;;;;;;;;;;;;;;19.87;46.91;99494.13;2063009;28;2263;-67
2024/03/11 00:06:40;;;;;;;;;;;;;;;19.88;46.97;99509.97;2066017;28;2259;-68
2024/03/11 00:07:45;;;;;;;;;;;;;;;19.87;46.88;99508.50;2066382;28;2083;-68
2024/03/11 00:08:47;;;;;;;;;;;;;;;19.87;46.85;99491.28;2065759;28;2225;-68
2024/03/11 00:09:50;;;;;;;;;;;;;;;19.87;46.85;99499.88;2066800;28;2067;-66
2024/03/11 00:11:01;;;;;;;;;;;;;;;19.88;46.86;99501.34;2066284;28;1722;-68
2024/03/11 00:12:03;;;;;;;;;;;;;;;19.87;46.88;99505.63;2066951;28;2180;-68
2024/03/11 00:13:09;;;;;;;;;;;;;;;19.86;46.94;99502.03;2067871;28;2238;-68
2024/03/11 00:14:11;;;;;;;;;;;;;;;19.87;46.77;99499.88;2066825;28;2276;-68
2024/03/11 00:15:12;;;;;;;;;;;;;;;19.87;46.90;99505.63;2067467;28;2351;-68
2024/03/11 00:16:16;;;;;;;;;;;;;;;19.85;46.73;99509.19;2067721;28;2202;-68
2024/03/11 00:17:18;;;;;;;;;;;;;;;19.86;47.06;99509.94;2069809;28;2383;-68
2024/03/11 00:18:20;;;;;;;;;;;;;;;19.85;46.82;99508.44;2067845;28;1906;-68
2024/03/11 00:19:22;;;;;;;;;;;;;;;19.84;46.74;99513.47;2069676;28;2083;-68
2024/03/11 00:20:23;;;;;;;;;;;;;;;19.84;46.82;99512.75;2067615;28;2243;-70
2024/03/11 00:21:25;;;;;;;;;;;;;;;19.85;46.86;99509.19;2067791;28;2258;-68
2024/03/11 00:22:26;;;;;;;;;;;;;;;19.84;46.77;99507.72;2068987;28;2077;-68
2024/03/11 00:23:28;;;;;;;;;;;;;;;19.84;46.95;99513.47;2069333;28;2046;-68
2024/03/11 00:24:30;;;;;;;;;;;;;;;19.84;46.79;99509.88;2068774;28;1647;-68
2024/03/11 00:25:31;;;;;;;;;;;;;;;19.84;46.81;99512.75;2065168;28;2229;-68
2024/03/11 00:26:32;;;;;;;;;;;;;;;19.85;46.96;99514.19;2067183;28;2153;-68
2024/03/11 00:27:36;;;;;;;;;;;;;;;19.84;46.79;99515.63;2067449;28;2248;-68
2024/03/11 00:28:38;;;;;;;;;;;;;;;19.84;46.75;99510.59;2068498;28;1605;-68
2024/03/11 00:29:39;;;;;;;;;;;;;;;19.83;46.92;99514.84;2068265;28;2130;-68
2024/03/11 00:30:40;;;;;;;;;;;;;;;19.83;46.80;99512.00;2068295;28;6103;-68
2024/03/11 00:31:42;;;;;;;;;;;;;;;19.83;46.79;99519.88;2067857;28;2117;-68
2024/03/11 00:32:47;;;;;;;;;;;;;;;19.84;46.84;99512.75;2068354;28;2303;-68
2024/03/11 00:33:49;;;;;;;;;;;;;;;19.84;46.83;99515.63;2068674;28;1659;-68
2024/03/11 00:34:51;;;;;;;;;;;;;;;19.83;46.76;99511.25;2067136;28;2110;-68
2024/03/11 00:35:52;;;;;;;;;;;;;;;19.84;46.90;99518.50;2067223;28;2208;-68
2024/03/11 00:36:55;;;;;;;;;;;;;;;19.83;46.86;99517.00;2068579;28;2269;-66
2024/03/11 00:37:56;;;;;;;;;;;;;;;19.83;46.92;99517.72;2068940;28;2134;-67
2024/03/11 00:38:57;;;;;;;;;;;;;;;19.83;46.92;99522.75;2068522;28;2264;-67
2024/03/11 00:39:59;;;;;;;;;;;;;;;19.81;46.72;99523.44;2069158;28;2043;-68
2024/03/11 00:41:00;;;;;;;;;;;;;;;19.81;46.89;99511.19;2067120;28;2124;-67
2024/03/11 00:42:02;;;;;;;;;;;;;;;19.81;46.87;99514.84;2071664;28;2094;-67
2024/03/11 00:43:04;;;;;;;;;;;;;;;19.82;46.71;99527.78;2069516;28;2094;-68
2024/03/11 00:44:06;;;;;;;;;;;;;;;19.82;46.87;99515.56;2069972;28;2122;-68
2024/03/11 00:45:11;;;;;;;;;;;;;;;19.81;46.76;99514.06;2068697;28;2165;-68
2024/03/11 00:46:12;;;;;;;;;;;;;;;19.81;46.86;99514.84;2068045;28;2975;-67
2024/03/11 00:47:14;;;;;;;;;;;;;;;19.81;46.84;99514.06;2069262;28;2039;-68
2024/03/11 00:48:16;;;;;;;;;;;;;;;19.80;46.68;99515.50;2067919;28;2071;-68
2024/03/11 00:49:19;;;;;;;;;;;;;;;19.81;46.83;99516.94;2067403;28;2188;-68
2024/03/11 00:50:20;;;;;;;;;;;;;;;19.81;46.77;99516.94;2068718;28;2362;-68
2024/03/11 00:51:22;;;;;;;;;;;;;;;19.79;46.76;99511.16;2069813;28;2375;-68
2024/03/11 00:52:25;;;;;;;;;;;;;;;19.80;46.88;99506.88;2069028;28;2216;-68
2024/03/11 00:53:26;;;;;;;;;;;;;;;19.79;46.78;99517.66;2068385;28;1677;-67
2024/03/11 00:54:28;;;;;;;;;;;;;;;19.80;46.84;99501.13;2068760;28;2092;-68
2024/03/11 00:55:29;;;;;;;;;;;;;;;19.79;46.95;99514.03;2066730;28;2252;-68
2024/03/11 00:56:30;;;;;;;;;;;;;;;19.78;46.80;99506.81;2069236;28;2225;-67
2024/03/11 00:57:32;;;;;;;;;;;;;;;19.79;46.77;99505.41;2067850;28;1650;-68
2024/03/11 00:58:37;;;;;;;;;;;;;;;19.79;46.70;99508.28;2067280;28;2231;-67
2024/03/11 00:59:40;;;;;;;;;;;;;;;19.78;46.92;99503.94;2069072;28;2237;-68
2024/03/11 01:00:46;;;;;;;;;;;;;;;19.78;46.87;99504.69;2068346;28;6267;-67
2024/03/11 01:01:47;;;;;;;;;;;;;;;19.77;46.89;99502.47;2069243;28;1712;-68
2024/03/11 01:02:52;;;;;;;;;;;;;;;19.77;46.80;99502.47;2069201;28;2173;-68
2024/03/11 01:03:53;;;;;;;;;;;;;;;19.77;46.89;99497.47;2068998;28;2113;-68
2024/03/11 01:04:55;;;;;;;;;;;;;;;19.77;46.86;99502.47;2070514;28;2118;-68
2024/03/11 01:05:59;;;;;;;;;;;;;;;19.77;46.75;99491.75;2068310;28;2154;-68
2024/03/11 01:07:01;;;;;;;;;;;;;;;19.77;46.87;99500.34;2068645;28;2279;-68
2024/03/11 01:08:19;;;;;;;;;;;;;;;19.77;46.73;99491.75;2068283;28;2129;-68
2024/03/11 01:09:20;;;;;;;;;;;;;;;19.77;46.81;99488.09;2069751;28;2035;-68
2024/03/11 01:10:22;;;;;;;;;;;;;;;19.77;46.70;99488.09;2068255;28;1741;-68
2024/03/11 01:11:23;;;;;;;;;;;;;;;19.76;46.84;99486.66;2069243;28;2193;-67
2024/03/11 01:12:25;;;;;;;;;;;;;;;19.76;46.64;99483.78;2067900;28;2378;-68
2024/03/11 01:13:26;;;;;;;;;;;;;;;19.77;46.72;99490.97;2068883;28;1660;-67
2024/03/11 01:14:27;;;;;;;;;;;;;;;19.77;46.82;99488.09;2067016;28;2147;-68
2024/03/11 01:15:29;;;;;;;;;;;;;;;19.76;46.85;99478.78;2066097;28;2110;-67
2024/03/11 01:16:30;;;;;;;;;;;;;;;19.77;46.83;99482.38;2069205;28;2308;-67
2024/03/11 01:17:34;;;;;;;;;;;;;;;19.76;46.86;99475.19;2066805;28;1650;-68
2024/03/11 01:18:35;;;;;;;;;;;;;;;19.77;46.87;99473.75;2068836;28;1918;-68
2024/03/11 01:19:36;;;;;;;;;;;;;;;19.77;46.83;99473.75;2069526;28;2019;-67
2024/03/11 01:20:38;;;;;;;;;;;;;;;19.77;46.63;99465.13;2067587;28;2259;-68
2024/03/11 01:21:41;;;;;;;;;;;;;;;19.76;46.72;99466.56;2067381;28;2256;-68
2024/03/11 01:22:42;;;;;;;;;;;;;;;19.76;46.72;99472.31;2067854;28;2266;-67
2024/03/11 01:23:47;;;;;;;;;;;;;;;19.77;46.73;99476.63;2067603;28;2224;-67
2024/03/11 01:24:48;;;;;;;;;;;;;;;19.76;46.87;99473.03;2069664;28;1991;-68
2024/03/11 01:25:50;;;;;;;;;;;;;;;19.75;46.91;99473.72;2069513;28;1556;-68
2024/03/11 01:26:51;;;;;;;;;;;;;;;19.75;46.93;99473.72;2068913;28;1949;-68
2024/03/11 01:27:53;;;;;;;;;;;;;;;19.74;46.80;99475.13;2066622;28;2026;-68
2024/03/11 01:28:54;;;;;;;;;;;;;;;19.75;46.75;99479.47;2068614;28;1628;-68
2024/03/11 01:29:55;;;;;;;;;;;;;;;19.75;46.84;99476.59;2070527;28;2145;-68
2024/03/11 01:30:57;;;;;;;;;;;;;;;19.75;46.87;99473.72;2068668;28;6253;-68
2024/03/11 01:31:58;;;;;;;;;;;;;;;19.75;46.83;99473.72;2068326;28;2102;-68
2024/03/11 01:32:59;;;;;;;;;;;;;;;19.75;46.88;99485.22;2069339;28;2154;-67
2024/03/11 01:34:01;;;;;;;;;;;;;;;19.74;46.82;99475.13;2067331;28;2252;-67
2024/03/11 01:35:03;;;;;;;;;;;;;;;19.74;46.86;99480.84;2069601;28;2121;-68
2024/03/11 01:36:08;;;;;;;;;;;;;;;19.73;46.82;99479.41;2066329;28;2231;-67
2024/03/11 01:37:10;;;;;;;;;;;;;;;19.73;46.85;99479.41;2067361;28;1584;-68
2024/03/11 01:38:12;;;;;;;;;;;;;;;19.73;46.70;99479.41;2067374;28;1973;-68
2024/03/11 01:39:25;;;;;;;;;;;;;;;19.73;46.90;99485.88;2068723;28;1999;-67
2024/03/11 01:40:27;;;;;;;;;;;;;;;19.73;46.67;99479.41;2068564;28;1631;-67
2024/03/11 01:41:29;;;;;;;;;;;;;;;19.73;46.72;99482.28;2065973;28;2003;-67
2024/03/11 01:42:30;;;;;;;;;;;;;;;19.73;46.83;99482.28;2068329;28;2069;-67
2024/03/11 01:43:31;;;;;;;;;;;;;;;19.74;46.75;99481.59;2068114;28;2055;-67
2024/03/11 01:44:33;;;;;;;;;;;;;;;19.72;46.68;99487.28;2065921;28;2126;-68
2024/03/11 01:45:36;;;;;;;;;;;;;;;19.72;46.77;99483.66;2067512;28;2226;-67
2024/03/11 01:46:37;;;;;;;;;;;;;;;19.73;46.69;99479.41;2068938;28;2240;-68
2024/03/11 01:47:39;;;;;;;;;;;;;;;19.73;46.81;99485.16;2068921;28;2042;-68
2024/03/11 01:48:41;;;;;;;;;;;;;;;19.73;46.77;99485.16;2067873;28;1811;-68
2024/03/11 01:49:43;;;;;;;;;;;;;;;19.73;46.76;99493.75;2067512;28;2308;-67
2024/03/11 01:50:45;;;;;;;;;;;;;;;19.73;46.77;99493.75;2067479;28;2342;-68
2024/03/11 01:51:47;;;;;;;;;;;;;;;19.72;46.87;99489.41;2067622;28;2216;-68
2024/03/11 01:52:50;;;;;;;;;;;;;;;19.71;46.72;99482.22;2068089;28;2263;-68
2024/03/11 01:53:52;;;;;;;;;;;;;;;19.73;46.77;99485.16;2067456;28;2114;-67
2024/03/11 01:54:55;;;;;;;;;;;;;;;19.71;46.89;99476.47;2067217;28;2053;-69
2024/03/11 01:55:57;;;;;;;;;;;;;;;19.72;46.77;99492.28;2068420;28;2150;-68
2024/03/11 01:57:00;;;;;;;;;;;;;;;19.72;46.76;99486.53;2067160;28;2322;-68
2024/03/11 01:58:03;;;;;;;;;;;;;;;19.72;46.65;99490.16;2064667;28;2368;-68
2024/03/11 01:59:07;;;;;;;;;;;;;;;19.72;46.73;99490.16;2064596;28;2070;-68
2024/03/11 02:00:09;;;;;;;;;;;;;;;19.72;46.71;99484.41;2065776;28;6260;-68
2024/03/11 02:01:10;;;;;;;;;;;;;;;19.70;46.81;99492.97;2067510;28;2011;-68
2024/03/11 02:02:12;;;;;;;;;;;;;;;19.72;46.64;99489.41;2065752;28;2319;-68
2024/03/11 02:03:14;;;;;;;;;;;;;;;19.72;46.75;99483.66;2068734;28;2067;-67
2024/03/11 02:04:16;;;;;;;;;;;;;;;19.72;46.80;99489.41;2068261;28;1769;-68
2024/03/11 02:05:19;;;;;;;;;;;;;;;19.71;46.58;99482.22;2067681;28;2087;-68
2024/03/11 02:06:21;;;;;;;;;;;;;;;19.70;46.74;99480.75;2067643;28;2298;-68
2024/03/11 02:07:22;;;;;;;;;;;;;;;19.70;46.78;99486.47;2066774;28;2105;-67
2024/03/11 02:08:24;;;;;;;;;;;;;;;19.70;46.76;99480.75;2067028;28;2033;-68
2024/03/11 02:09:25;;;;;;;;;;;;;;;19.69;46.84;99485.75;2066543;28;2040;-67
2024/03/11 02:10:27;;;;;;;;;;;;;;;19.69;46.73;99477.16;2068095;28;2171;-68
2024/03/11 02:11:28;;;;;;;;;;;;;;;19.67;46.67;99483.53;2067938;28;2154;-68
2024/03/11 02:12:31;;;;;;;;;;;;;;;19.69;46.71;99480.03;2067041;28;2304;-67
2024/03/11 02:13:33;;;;;;;;;;;;;;;19.69;46.77;99479.28;2067313;28;2248;-68
2024/03/11 02:14:35;;;;;;;;;;;;;;;19.69;46.72;99485.03;2068965;28;1810;-68
2024/03/11 02:15:37;;;;;;;;;;;;;;;19.69;46.73;99479.28;2067824;28;2047;-68
2024/03/11 02:16:38;;;;;;;;;;;;;;;19.69;46.77;99476.41;2069302;28;1834;-69
2024/03/11 02:17:40;;;;;;;;;;;;;;;19.70;46.73;99486.47;2068358;28;2126;-67
2024/03/11 02:18:42;;;;;;;;;;;;;;;19.70;46.62;99475.00;2067529;28;1906;-68
2024/03/11 02:19:43;;;;;;;;;;;;;;;19.70;46.70;99475.00;2068662;28;2165;-67
2024/03/11 02:20:45;;;;;;;;;;;;;;;19.69;46.75;99488.63;2066537;28;2150;-67
2024/03/11 02:21:47;;;;;;;;;;;;;;;19.69;46.58;99485.75;2067715;28;2162;-68
2024/03/11 02:22:49;;;;;;;;;;;;;;;19.67;46.71;99489.28;2066228;28;2256;-68
2024/03/11 02:23:51;;;;;;;;;;;;;;;19.68;46.74;99484.28;2067226;28;2111;-67
2024/03/11 02:24:52;;;;;;;;;;;;;;;19.67;46.83;99480.66;2069200;28;2259;-67
2024/03/11 02:25:55;;;;;;;;;;;;;;;19.67;46.67;99491.41;2066674;28;2117;-67
2024/03/11 02:26:57;;;;;;;;;;;;;;;19.66;46.69;99487.81;2067303;28;1756;-68
2024/03/11 02:28:00;;;;;;;;;;;;;;;19.67;46.70;99495.00;2064035;28;2177;-68
2024/03/11 02:29:01;;;;;;;;;;;;;;;19.66;46.81;99487.81;2066030;28;1845;-68
2024/03/11 02:30:03;;;;;;;;;;;;;;;19.67;46.71;99494.28;2065482;28;6462;-68
2024/03/11 02:31:04;;;;;;;;;;;;;;;19.65;46.65;99492.13;2065276;28;2121;-67
2024/03/11 02:32:06;;;;;;;;;;;;;;;19.66;46.71;99496.44;2067527;28;1654;-67
2024/03/11 02:33:07;;;;;;;;;;;;;;;19.67;46.63;99489.28;2066877;28;2208;-68
2024/03/11 02:34:09;;;;;;;;;;;;;;;19.66;46.61;99487.81;2068304;28;2106;-67
2024/03/11 02:35:11;;;;;;;;;;;;;;;19.66;46.77;99498.59;2066692;28;2111;-67
2024/03/11 02:36:18;;;;;;;;;;;;;;;19.65;46.66;99492.13;2068164;28;2047;-68
2024/03/11 02:37:21;;;;;;;;;;;;;;;19.66;46.81;99493.56;2068984;28;2343;-68
2024/03/11 02:38:23;;;;;;;;;;;;;;;19.66;46.75;99489.97;2064767;28;2283;-67
2024/03/11 02:39:27;;;;;;;;;;;;;;;19.66;46.70;99493.56;2066971;28;2039;-68
2024/03/11 02:40:31;;;;;;;;;;;;;;;19.66;46.66;99493.56;2066935;28;1787;-68
2024/03/11 02:41:32;;;;;;;;;;;;;;;19.67;46.82;99494.28;2065960;28;2126;-67
2024/03/11 02:42:34;;;;;;;;;;;;;;;19.67;46.71;99494.28;2067625;28;2018;-67
2024/03/11 02:43:36;;;;;;;;;;;;;;;19.65;46.75;99486.38;2067338;28;2026;-68
2024/03/11 02:44:38;;;;;;;;;;;;;;;19.65;46.64;99486.38;2067388;28;1684;-68
2024/03/11 02:45:40;;;;;;;;;;;;;;;19.65;46.75;99483.50;2068324;28;2195;-68
2024/03/11 02:46:41;;;;;;;;;;;;;;;19.65;46.77;99482.75;2067592;28;2023;-67
2024/03/11 02:47:43;;;;;;;;;;;;;;;19.65;46.75;99497.09;2067267;28;2082;-67
2024/03/11 02:48:45;;;;;;;;;;;;;;;19.63;46.64;99489.19;2068004;28;2385;-67
2024/03/11 02:49:47;;;;;;;;;;;;;;;19.64;46.75;99490.63;2069201;28;1654;-68
2024/03/11 02:50:48;;;;;;;;;;;;;;;19.63;46.79;99483.44;2065559;28;2167;-68
2024/03/11 02:51:50;;;;;;;;;;;;;;;19.63;46.64;99483.44;2073369;28;2251;-67
2024/03/11 02:52:51;;;;;;;;;;;;;;;19.62;46.68;99487.69;2074657;28;1717;-68
2024/03/11 02:53:53;;;;;;;;;;;;;;;19.63;46.80;99477.69;2068253;28;2140;-67
2024/03/11 02:54:54;;;;;;;;;;;;;;;19.62;46.70;99487.69;2065749;28;2201;-68
2024/03/11 02:55:56;;;;;;;;;;;;;;;19.63;46.71;99489.19;2067769;28;1693;-67
2024/03/11 02:56:57;;;;;;;;;;;;;;;19.62;46.78;99481.97;2065612;28;2147;-67
2024/03/11 02:58:00;;;;;;;;;;;;;;;19.63;47.03;99480.56;2066535;28;2058;-67
2024/03/11 02:59:01;;;;;;;;;;;;;;;19.64;46.74;99484.16;2067173;28;2036;-68
2024/03/11 03:00:10;;;;;;;;;;;;;;;19.63;46.75;99485.56;2065412;28;6452;-68
2024/03/11 03:01:15;;;;;;;;;;;;;;;19.63;46.84;99477.69;2066835;28;2213;-68
2024/03/11 03:02:16;;;;;;;;;;;;;;;19.62;46.85;99476.22;2067949;28;1797;-68
2024/03/11 03:03:18;;;;;;;;;;;;;;;19.63;46.81;99477.69;2066365;28;2067;-67
2024/03/11 03:04:19;;;;;;;;;;;;;;;19.62;46.72;99476.22;2067231;28;1706;-68
2024/03/11 03:05:21;;;;;;;;;;;;;;;19.64;46.80;99484.16;2066697;28;1991;-68
2024/03/11 03:06:23;;;;;;;;;;;;;;;19.62;46.82;99470.47;2065081;28;2123;-68
2024/03/11 03:07:25;;;;;;;;;;;;;;;19.62;46.69;99476.22;2065934;28;2237;-67
2024/03/11 03:08:27;;;;;;;;;;;;;;;19.61;46.69;99474.75;2065482;28;2109;-68
2024/03/11 03:09:28;;;;;;;;;;;;;;;19.62;46.79;99476.22;2068196;28;1978;-67
2024/03/11 03:10:30;;;;;;;;;;;;;;;19.62;46.76;99473.34;2069065;28;2299;-68
2024/03/11 03:11:31;;;;;;;;;;;;;;;19.61;46.76;99474.75;2066757;28;2235;-68
2024/03/11 03:12:35;;;;;;;;;;;;;;;19.61;46.76;99469.03;2067178;28;2657;-67
2024/03/11 03:13:37;;;;;;;;;;;;;;;19.62;46.78;99467.59;2065476;28;2213;-68
2024/03/11 03:14:40;;;;;;;;;;;;;;;19.60;46.76;99473.28;2066735;28;2326;-68
2024/03/11 03:15:42;;;;;;;;;;;;;;;19.60;46.66;99464.69;2066717;28;2300;-68
2024/03/11 03:16:44;;;;;;;;;;;;;;;19.60;46.81;99470.41;2067336;28;2243;-68
2024/03/11 03:17:45;;;;;;;;;;;;;;;19.61;46.76;99474.75;2065724;28;2374;-67
2024/03/11 03:18:46;;;;;;;;;;;;;;;19.61;46.74;99474.03;2066583;28;1684;-67
2024/03/11 03:19:48;;;;;;;;;;;;;;;19.59;46.80;99468.97;2067931;28;2149;-68
2024/03/11 03:20:50;;;;;;;;;;;;;;;19.61;46.82;99468.31;2067056;28;2235;-67
2024/03/11 03:21:51;;;;;;;;;;;;;;;19.60;46.86;99473.28;2066374;28;2280;-68
2024/03/11 03:22:52;;;;;;;;;;;;;;;19.59;46.84;99471.84;2067825;28;1649;-68
2024/03/11 03:23:54;;;;;;;;;;;;;;;19.60;46.86;99467.53;2066033;28;1998;-67
2024/03/11 03:24:55;;;;;;;;;;;;;;;19.59;46.82;99471.13;2067921;28;1704;-67
2024/03/11 03:25:57;;;;;;;;;;;;;;;19.59;46.85;99466.09;2065983;28;1955;-67
2024/03/11 03:26:58;;;;;;;;;;;;;;;19.59;46.83;99474.72;2067987;28;1796;-67
2024/03/11 03:28:02;;;;;;;;;;;;;;;19.59;46.77;99471.13;2067443;28;2193;-68
2024/03/11 03:29:03;;;;;;;;;;;;;;;19.58;46.87;99473.22;2066805;28;2414;-68
2024/03/11 03:30:06;;;;;;;;;;;;;;;19.59;46.73;99471.84;2067214;28;6252;-67
2024/03/11 03:31:09;;;;;;;;;;;;;;;19.59;46.86;99471.84;2067238;28;2375;-67
2024/03/11 03:32:12;;;;;;;;;;;;;;;19.59;46.73;99476.84;2066500;28;1666;-68
2024/03/11 03:33:13;;;;;;;;;;;;;;;19.58;46.84;99481.84;2067618;28;1992;-67
2024/03/11 03:34:15;;;;;;;;;;;;;;;19.58;46.91;99478.97;2065533;28;2181;-68
2024/03/11 03:35:16;;;;;;;;;;;;;;;19.58;46.86;99478.25;2066891;28;2330;-68
2024/03/11 03:36:18;;;;;;;;;;;;;;;19.58;46.89;99481.84;2068478;28;2311;-67
2024/03/11 03:37:22;;;;;;;;;;;;;;;19.57;46.87;99480.41;2068712;28;2074;-68
2024/03/11 03:38:23;;;;;;;;;;;;;;;19.58;46.86;99481.13;2067110;28;1698;-67
2024/03/11 03:39:25;;;;;;;;;;;;;;;19.59;46.92;99482.59;2067053;28;1975;-68
2024/03/11 03:40:26;;;;;;;;;;;;;;;19.59;46.91;99479.72;2065907;28;2303;-67
2024/03/11 03:41:28;;;;;;;;;;;;;;;19.59;46.84;99485.47;2068082;28;2056;-67
2024/03/11 03:42:29;;;;;;;;;;;;;;;19.57;46.80;99477.53;2066511;28;2071;-68
2024/03/11 03:43:31;;;;;;;;;;;;;;;19.59;46.84;99477.59;2066675;28;2034;-68
2024/03/11 03:44:32;;;;;;;;;;;;;;;19.60;46.83;99481.91;2067324;28;2120;-68
2024/03/11 03:45:34;;;;;;;;;;;;;;;19.59;46.80;99482.59;2065079;28;2199;-68
2024/03/11 03:46:35;;;;;;;;;;;;;;;19.60;46.80;99479.03;2065630;28;2328;-67
2024/03/11 03:47:37;;;;;;;;;;;;;;;19.59;46.87;99483.31;2067398;28;1998;-67
2024/03/11 03:48:38;;;;;;;;;;;;;;;19.58;46.90;99481.84;2068287;28;2044;-67
2024/03/11 03:49:40;;;;;;;;;;;;;;;19.60;46.80;99489.78;2065855;28;2070;-68
2024/03/11 03:50:41;;;;;;;;;;;;;;;19.60;46.76;99484.78;2067338;28;2023;-68
2024/03/11 03:51:43;;;;;;;;;;;;;;;19.61;46.83;99486.25;2069392;28;2346;-67
2024/03/11 03:52:44;;;;;;;;;;;;;;;19.60;46.88;99496.25;2069336;28;2281;-67
2024/03/11 03:53:46;;;;;;;;;;;;;;;19.61;46.78;99485.53;2066529;28;2015;-68
2024/03/11 03:54:47;;;;;;;;;;;;;;;19.61;46.74;99474.75;2068540;28;1863;-67
2024/03/11 03:55:49;;;;;;;;;;;;;;;19.62;46.77;99484.84;2067399;28;2054;-68
2024/03/11 03:56:52;;;;;;;;;;;;;;;19.61;46.64;99486.25;2067644;28;2232;-68
2024/03/11 03:57:53;;;;;;;;;;;;;;;19.62;46.75;99476.22;2069800;28;2224;-68
2024/03/11 03:58:55;;;;;;;;;;;;;;;19.62;46.70;99487.69;2067965;28;2081;-68
2024/03/11 03:59:56;;;;;;;;;;;;;;;19.63;46.73;99488.44;2067240;28;2326;-67
2024/03/11 04:00:59;;;;;;;;;;;;;;;19.63;46.71;99494.94;2066912;28;6199;-67
2024/03/11 04:02:00;;;;;;;;;;;;;;;19.63;46.74;99489.19;2068240;28;1747;-67
2024/03/11 04:03:03;;;;;;;;;;;;;;;19.63;46.76;99483.44;2067729;28;1684;-67
2024/03/11 04:04:04;;;;;;;;;;;;;;;19.63;46.78;99482.69;2069045;28;2063;-69
2024/03/11 04:05:06;;;;;;;;;;;;;;;19.62;46.80;99487.69;2068365;28;1757;-67
2024/03/11 04:06:07;;;;;;;;;;;;;;;19.62;46.71;99484.84;2069545;28;2211;-68
2024/03/11 04:07:08;;;;;;;;;;;;;;;19.62;46.76;99492.72;2068963;28;2419;-68
2024/03/11 04:08:10;;;;;;;;;;;;;;;19.63;46.67;99489.19;2066838;28;1995;-68
2024/03/11 04:09:14;;;;;;;;;;;;;;;19.62;46.76;99492.72;2068124;28;2119;-67
2024/03/11 04:10:18;;;;;;;;;;;;;;;19.62;46.82;99490.56;2069544;28;1988;-67
2024/03/11 04:11:20;;;;;;;;;;;;;;;19.62;46.89;99490.56;2068369;28;1759;-67
2024/03/11 04:12:22;;;;;;;;;;;;;;;19.63;46.87;99494.19;2067354;28;1656;-67
2024/03/11 04:13:26;;;;;;;;;;;;;;;19.62;46.82;99499.19;2068138;28;2118;-68
2024/03/11 04:14:28;;;;;;;;;;;;;;;19.62;46.82;99496.31;2068596;28;2067;-68
2024/03/11 04:15:29;;;;;;;;;;;;;;;19.63;46.88;99492.06;2067589;28;1941;-67
2024/03/11 04:16:31;;;;;;;;;;;;;;;19.62;46.88;99502.06;2067719;28;2090;-67
2024/03/11 04:17:33;;;;;;;;;;;;;;;19.62;46.93;99504.94;2067961;28;2012;-67
2024/03/11 04:18:34;;;;;;;;;;;;;;;19.62;46.87;99499.19;2068747;28;2160;-67
2024/03/11 04:19:36;;;;;;;;;;;;;;;19.63;46.92;99499.91;2068523;28;1979;-67
2024/03/11 04:20:39;;;;;;;;;;;;;;;19.62;46.92;99509.94;2066874;28;2137;-67
2024/03/11 04:21:40;;;;;;;;;;;;;;;19.62;47.01;99507.06;2067745;28;2142;-67
2024/03/11 04:22:42;;;;;;;;;;;;;;;19.62;46.96;99512.81;2067502;28;1754;-68
2024/03/11 04:23:44;;;;;;;;;;;;;;;19.62;46.97;99507.06;2069159;28;2016;-67
2024/03/11 04:24:45;;;;;;;;;;;;;;;19.62;46.92;99515.69;2069834;28;1637;-68
2024/03/11 04:25:49;;;;;;;;;;;;;;;19.60;46.99;99510.63;2066496;28;2099;-68
2024/03/11 04:26:50;;;;;;;;;;;;;;;19.61;47.05;99514.25;2067513;28;2201;-67
2024/03/11 04:27:53;;;;;;;;;;;;;;;19.60;46.96;99519.22;2069333;28;1606;-67
2024/03/11 04:28:54;;;;;;;;;;;;;;;19.61;47.04;99512.09;2067610;28;2022;-68
2024/03/11 04:29:55;;;;;;;;;;;;;;;19.61;47.01;99520.72;2068315;28;2258;-67
2024/03/11 04:30:57;;;;;;;;;;;;;;;19.60;46.96;99516.34;2067290;28;6206;-67
2024/03/11 04:31:58;;;;;;;;;;;;;;;19.61;47.03;99519.97;2067475;28;2126;-67
2024/03/11 04:33:01;;;;;;;;;;;;;;;19.61;46.99;99514.25;2069526;28;1969;-68
2024/03/11 04:34:04;;;;;;;;;;;;;;;19.60;46.93;99515.63;2068601;28;1948;-67
2024/03/11 04:35:06;;;;;;;;;;;;;;;19.60;47.05;99524.97;2067744;28;1941;-68
2024/03/11 04:36:08;;;;;;;;;;;;;;;19.61;47.02;99526.44;2067611;28;2096;-67
2024/03/11 04:37:09;;;;;;;;;;;;;;;19.61;46.98;99526.44;2068280;28;1945;-67
2024/03/11 04:38:12;;;;;;;;;;;;;;;19.60;46.92;99524.97;2069438;28;1645;-68
2024/03/11 04:39:16;;;;;;;;;;;;;;;19.62;46.80;99521.44;2068608;28;1971;-67
2024/03/11 04:40:18;;;;;;;;;;;;;;;19.62;46.89;99527.91;2068541;28;1926;-66
2024/03/11 04:41:20;;;;;;;;;;;;;;;19.62;46.83;99527.91;2066989;28;2016;-67
2024/03/11 04:42:21;;;;;;;;;;;;;;;19.61;46.87;99526.44;2067502;28;1948;-68
2024/03/11 04:43:23;;;;;;;;;;;;;;;19.62;46.67;99525.03;2068445;28;2062;-67
2024/03/11 04:44:24;;;;;;;;;;;;;;;19.63;46.80;99534.38;2068440;28;1921;-68
2024/03/11 04:45:26;;;;;;;;;;;;;;;19.62;46.88;99518.56;2068382;28;1988;-67
2024/03/11 04:46:28;;;;;;;;;;;;;;;19.64;46.82;99518.63;2068197;28;2022;-68
2024/03/11 04:47:29;;;;;;;;;;;;;;;19.63;46.84;99522.88;2069520;28;1792;-67
2024/03/11 04:48:30;;;;;;;;;;;;;;;19.64;46.77;99522.22;2068913;28;1952;-67
2024/03/11 04:49:32;;;;;;;;;;;;;;;19.65;46.66;99526.56;2068652;28;1948;-67
2024/03/11 04:50:34;;;;;;;;;;;;;;;19.63;46.70;99517.91;2066234;28;2040;-68
2024/03/11 04:51:41;;;;;;;;;;;;;;;19.64;46.77;99530.84;2066341;28;2171;-67
2024/03/11 04:52:42;;;;;;;;;;;;;;;19.65;46.75;99526.56;2067682;28;2116;-68
2024/03/11 04:53:46;;;;;;;;;;;;;;;19.66;46.72;99533.03;2067092;28;2000;-68
2024/03/11 04:54:47;;;;;;;;;;;;;;;19.66;46.71;99533.03;2068956;28;2310;-68
2024/03/11 04:55:49;;;;;;;;;;;;;;;19.65;46.67;99532.31;2068912;28;2059;-67
2024/03/11 04:56:50;;;;;;;;;;;;;;;19.66;46.69;99536.63;2068127;28;2372;-67
2024/03/11 04:57:52;;;;;;;;;;;;;;;19.65;46.66;99535.19;2066330;28;2130;-66
2024/03/11 04:58:53;;;;;;;;;;;;;;;19.65;46.71;99532.31;2067667;28;2079;-67
2024/03/11 04:59:54;;;;;;;;;;;;;;;19.65;46.63;99540.94;2067385;28;2058;-67
2024/03/11 05:00:56;;;;;;;;;;;;;;;19.65;46.74;99532.31;2067679;28;6226;-66
2024/03/11 05:01:57;;;;;;;;;;;;;;;19.66;46.56;99536.63;2067240;28;2125;-68
2024/03/11 05:03:00;;;;;;;;;;;;;;;19.65;46.74;99538.06;2066953;28;1995;-67
2024/03/11 05:04:01;;;;;;;;;;;;;;;19.66;46.72;99533.03;2068532;28;1924;-67
2024/03/11 05:05:10;;;;;;;;;;;;;;;19.65;46.71;99534.44;2068926;28;1851;-68
2024/03/11 05:06:11;;;;;;;;;;;;;;;19.65;46.63;99532.31;2068855;28;2168;-67
2024/03/11 05:07:13;;;;;;;;;;;;;;;19.65;46.81;99534.44;2067526;28;1893;-68
2024/03/11 05:08:14;;;;;;;;;;;;;;;19.66;46.83;99535.91;2068463;28;1925;-67
2024/03/11 05:09:15;;;;;;;;;;;;;;;19.65;46.82;99535.19;2068591;28;2090;-68
2024/03/11 05:10:17;;;;;;;;;;;;;;;19.65;46.73;99526.56;2068656;28;2085;-68
2024/03/11 05:11:18;;;;;;;;;;;;;;;19.64;46.70;99536.59;2067582;28;2016;-73
2024/03/11 05:12:20;;;;;;;;;;;;;;;19.64;46.75;99533.72;2067783;28;2174;-69
2024/03/11 05:13:21;;;;;;;;;;;;;;;19.62;46.99;99525.03;2068609;28;2126;-72
2024/03/11 05:14:23;;;;;;;;;;;;;;;19.64;46.80;99530.84;2067944;28;2046;-65
2024/03/11 05:15:28;;;;;;;;;;;;;;;19.67;46.76;99532.34;2067740;28;2016;-71
2024/03/11 05:16:30;;;;;;;;;;;;;;;19.67;46.75;99535.22;2067997;28;2049;-72
2024/03/11 05:17:31;;;;;;;;;;;;;;;19.66;46.90;99539.50;2069186;28;1672;-70
2024/03/11 05:18:32;;;;;;;;;;;;;;;19.66;46.83;99545.25;2067719;28;1637;-71
2024/03/11 05:19:34;;;;;;;;;;;;;;;19.65;46.95;99538.06;2067092;28;1873;-71
2024/03/11 05:20:36;;;;;;;;;;;;;;;19.64;46.99;99539.44;2067578;28;2047;-71
2024/03/11 05:21:37;;;;;;;;;;;;;;;19.65;46.98;99537.31;2068275;28;2176;-71
2024/03/11 05:22:41;;;;;;;;;;;;;;;19.64;46.99;99532.97;2068069;28;1979;-72
2024/03/11 05:23:42;;;;;;;;;;;;;;;19.64;46.92;99536.59;2068001;28;2011;-72
2024/03/11 05:24:44;;;;;;;;;;;;;;;19.63;46.97;99538.00;2067596;28;1947;-71
2024/03/11 05:25:45;;;;;;;;;;;;;;;19.63;46.99;99540.88;2068782;28;2121;-71
2024/03/11 05:26:47;;;;;;;;;;;;;;;19.63;47.06;99552.34;2069913;28;2105;-71
2024/03/11 05:27:50;;;;;;;;;;;;;;;19.63;47.05;99551.59;2069277;28;1912;-70